Ballymahon, Ireland
Current Conditions -  °F | °C
As of 7:00 PM on Saturday 20 Dec 2014 (Local Time) from EIKN Reporting Station
Broken Clouds Broken Clouds  
Wind Chill: 35°   Ceiling: 2700
Heat Index: 41°   Visibility: 6mi
Dew Point: 41°   Wind: 9mph
Humidity: 100%   Direction: 220°SW
Pressure: 30.3"   Gusts: NA
Location:  53.56°N, 7.77°W
Report Text: EIKN 201900Z 22008KT 180V250 9999 SCT008 BKN027 05/05 Q1026 NOSIG
Loading
Personal Weather Stations






























Interactive Weather Map New forecast layout! Learn more

10-Day Weather Forecast

Advertisements
Track Severe Weather on mobile